createdAt,value
2018-12-15T00:02:21.735Z,4.27
2018-12-15T00:04:52.394Z,4.43
2018-12-15T00:07:23.038Z,4.51
2018-12-15T00:09:51.774Z,4.60
2018-12-15T00:12:20.430Z,4.46
2018-12-15T00:14:49.158Z,4.41
2018-12-15T00:17:17.934Z,4.44
2018-12-15T00:19:46.657Z,4.47
2018-12-15T00:22:15.317Z,4.53
2018-12-15T00:24:44.038Z,4.54
2018-12-15T00:27:12.774Z,4.54
2018-12-15T00:29:41.666Z,4.35
2018-12-15T00:32:10.386Z,4.33
2018-12-15T00:34:39.119Z,4.31
2018-12-15T00:37:07.850Z,4.19
2018-12-15T00:39:36.500Z,4.24
2018-12-15T00:42:05.234Z,4.32
2018-12-15T00:44:33.946Z,4.37
2018-12-15T00:47:02.722Z,4.37
2018-12-15T00:49:31.378Z,4.30
2018-12-15T00:52:00.142Z,4.33
2018-12-15T00:54:28.863Z,4.42
2018-12-15T00:56:57.527Z,4.33
2018-12-15T00:59:26.192Z,4.39
2018-12-15T01:01:54.904Z,4.42
2018-12-15T01:04:23.614Z,4.36
2018-12-15T01:06:52.366Z,4.27
2018-12-15T01:09:21.102Z,4.22
2018-12-15T01:11:49.832Z,4.16
2018-12-15T01:14:18.487Z,4.16
2018-12-15T01:16:47.183Z,4.12
2018-12-15T01:19:15.894Z,4.13
2018-12-15T01:21:44.570Z,4.16
2018-12-15T01:24:13.289Z,4.11
2018-12-15T01:26:42.030Z,4.13
2018-12-15T01:29:11.783Z,3.96
2018-12-15T01:31:40.498Z,4.18
2018-12-15T01:34:09.226Z,4.18
2018-12-15T01:36:37.888Z,4.23
2018-12-15T01:39:08.354Z,4.31
2018-12-15T01:41:37.173Z,4.06
2018-12-15T01:44:05.884Z,4.18
2018-12-15T01:46:34.583Z,4.11
2018-12-15T01:49:03.335Z,3.96
2018-12-15T01:51:32.106Z,4.06
2018-12-15T01:54:00.806Z,4.02
2018-12-15T01:56:29.464Z,4.10
2018-12-15T01:58:58.166Z,4.05
2018-12-15T02:01:26.881Z,4.15
2018-12-15T02:03:55.573Z,4.27
2018-12-15T02:06:24.291Z,4.20
2018-12-15T02:08:53.043Z,4.28
2018-12-15T02:11:23.697Z,4.18
2018-12-15T02:13:53.515Z,4.12
2018-12-15T02:16:22.226Z,4.05
2018-12-15T02:18:50.943Z,4.22
2018-12-15T02:21:19.639Z,4.23
2018-12-15T02:23:48.335Z,4.21
2018-12-15T02:26:17.042Z,4.21
2018-12-15T02:28:45.759Z,4.38
2018-12-15T02:31:14.450Z,4.44
2018-12-15T02:33:44.171Z,4.52
2018-12-15T02:36:12.875Z,4.58
2018-12-15T02:38:41.573Z,4.60
2018-12-15T02:41:10.296Z,4.50
2018-12-15T02:43:39.022Z,4.57
2018-12-15T02:46:07.756Z,4.59
2018-12-15T02:48:36.478Z,4.58
2018-12-15T02:51:05.194Z,4.65
2018-12-15T02:53:33.923Z,4.74
2018-12-15T02:56:02.590Z,4.68
2018-12-15T02:58:31.304Z,4.62
2018-12-15T03:01:00.011Z,4.52
2018-12-15T03:03:28.742Z,4.58
2018-12-15T03:05:57.450Z,4.52
2018-12-15T03:08:26.174Z,4.55
2018-12-15T03:10:54.827Z,4.62
2018-12-15T03:13:23.538Z,4.50
2018-12-15T03:15:52.260Z,4.48
2018-12-15T03:18:21.066Z,4.42
2018-12-15T03:21:01.198Z,4.08
2018-12-15T03:23:29.859Z,4.23
2018-12-15T03:25:58.834Z,4.32
2018-12-15T03:28:27.508Z,4.22
2018-12-15T03:30:56.226Z,4.21
2018-12-15T03:33:25.008Z,4.31
2018-12-15T03:35:53.734Z,4.40
2018-12-15T03:38:22.450Z,4.47
2018-12-15T03:40:51.166Z,4.42
2018-12-15T03:43:19.916Z,4.49
2018-12-15T03:45:48.612Z,4.45
2018-12-15T03:48:17.311Z,4.45
2018-12-15T03:50:46.019Z,4.45
2018-12-15T03:53:14.745Z,4.47
2018-12-15T03:55:43.444Z,4.53
2018-12-15T03:58:12.213Z,4.48
2018-12-15T04:00:40.925Z,4.50
2018-12-15T04:03:09.587Z,4.42
2018-12-15T04:05:38.302Z,4.55
2018-12-15T04:08:06.989Z,4.48
2018-12-15T04:10:35.997Z,4.59
2018-12-15T04:13:04.800Z,4.61
2018-12-15T04:15:33.559Z,4.72
2018-12-15T04:18:03.858Z,4.69
2018-12-15T04:20:32.809Z,4.66
2018-12-15T04:23:01.547Z,4.61
2018-12-15T04:25:30.326Z,4.53
2018-12-15T04:27:59.031Z,4.47
2018-12-15T04:30:27.879Z,4.35
2018-12-15T04:32:56.558Z,4.36
2018-12-15T04:35:25.386Z,4.43
2018-12-15T04:37:54.111Z,4.35
2018-12-15T04:40:23.271Z,4.41
2018-12-15T04:42:51.990Z,4.40
2018-12-15T04:45:20.807Z,4.39
2018-12-15T04:47:49.647Z,4.42
2018-12-15T04:50:18.347Z,4.43
2018-12-15T04:52:47.043Z,4.35
2018-12-15T04:55:15.741Z,4.30
2018-12-15T04:57:44.517Z,4.14
2018-12-15T05:00:13.279Z,4.17
2018-12-15T05:02:44.058Z,4.25
2018-12-15T05:05:12.786Z,4.32
2018-12-15T05:07:41.479Z,4.42
2018-12-15T05:10:11.271Z,4.30
2018-12-15T05:12:39.960Z,4.32
2018-12-15T05:15:08.752Z,4.34
2018-12-15T05:17:37.460Z,4.37
2018-12-15T05:20:07.429Z,4.39
2018-12-15T05:22:36.306Z,3.48
2018-12-15T05:25:06.115Z,4.33
2018-12-15T05:27:34.843Z,4.24
2018-12-15T05:30:03.734Z,4.20
2018-12-15T05:32:32.465Z,4.12
2018-12-15T05:35:01.255Z,4.12
2018-12-15T05:37:30.099Z,4.08
2018-12-15T05:39:58.823Z,4.17
2018-12-15T05:42:27.571Z,4.20
2018-12-15T05:44:56.335Z,4.33
2018-12-15T05:47:25.083Z,4.36
2018-12-15T05:49:53.762Z,4.36
2018-12-15T05:52:22.458Z,4.43
2018-12-15T05:54:51.155Z,4.52
2018-12-15T05:57:19.914Z,4.51
2018-12-15T05:59:48.618Z,4.47
2018-12-15T06:02:18.119Z,4.27
2018-12-15T06:04:46.866Z,4.32
2018-12-15T06:07:15.586Z,4.40
2018-12-15T06:09:44.327Z,4.44
2018-12-15T06:12:13.091Z,4.55
2018-12-15T06:14:41.844Z,4.35
2018-12-15T06:17:10.675Z,4.15
2018-12-15T06:19:39.500Z,4.31
2018-12-15T06:22:08.263Z,4.49
2018-12-15T06:24:37.397Z,4.50
2018-12-15T06:27:06.119Z,4.56
2018-12-15T06:29:34.867Z,4.65
2018-12-15T06:32:03.699Z,4.57
2018-12-15T06:34:32.463Z,4.50
2018-12-15T06:37:01.166Z,4.53
2018-12-15T06:39:29.991Z,4.53
2018-12-15T06:41:58.756Z,4.59
2018-12-15T06:44:27.591Z,4.63
2018-12-15T06:46:56.287Z,4.71
2018-12-15T06:49:25.893Z,4.71
2018-12-15T06:51:54.591Z,4.76
2018-12-15T06:54:23.297Z,4.72
2018-12-15T06:56:51.990Z,4.68
2018-12-15T06:59:20.746Z,4.75
2018-12-15T07:01:49.523Z,4.77
2018-12-15T07:04:18.279Z,4.77
2018-12-15T07:06:47.039Z,4.84
2018-12-15T07:09:15.782Z,4.86
2018-12-15T07:11:44.526Z,4.86
2018-12-15T07:14:13.264Z,4.90
2018-12-15T07:16:41.991Z,4.92
2018-12-15T07:19:10.794Z,4.95
2018-12-15T07:21:39.531Z,4.96
2018-12-15T07:24:08.790Z,4.93
2018-12-15T07:26:37.596Z,4.88
2018-12-15T07:29:06.423Z,4.86
2018-12-15T07:31:35.206Z,4.86
2018-12-15T07:34:03.973Z,4.83
2018-12-15T07:36:32.831Z,4.64
2018-12-15T07:39:01.563Z,4.62
2018-12-15T07:41:31.274Z,4.64
2018-12-15T07:44:00.007Z,4.76
2018-12-15T07:46:28.678Z,4.86
2018-12-15T07:48:57.385Z,4.87
2018-12-15T07:51:26.119Z,4.81
2018-12-15T07:53:54.892Z,4.91
2018-12-15T07:56:26.797Z,4.89
2018-12-15T07:58:56.074Z,4.89
2018-12-15T08:01:24.778Z,4.98
2018-12-15T08:03:53.559Z,5.00
2018-12-15T08:06:22.283Z,5.05
2018-12-15T08:08:51.020Z,5.04
2018-12-15T08:11:25.200Z,4.99
2018-12-15T08:13:58.112Z,4.97
2018-12-15T08:16:26.907Z,5.03
2018-12-15T08:18:58.194Z,4.89
2018-12-15T08:21:26.954Z,4.98
2018-12-15T08:23:55.622Z,5.09
2018-12-15T08:26:25.451Z,5.04
2018-12-15T08:28:54.184Z,5.09
2018-12-15T08:31:22.910Z,5.07
2018-12-15T08:33:51.690Z,4.97
2018-12-15T08:36:20.354Z,4.94
2018-12-15T08:38:49.087Z,4.98
2018-12-15T08:41:17.972Z,5.08
2018-12-15T08:43:47.529Z,5.16
2018-12-15T08:46:17.578Z,5.19
2018-12-15T08:48:46.302Z,5.16
2018-12-15T08:51:15.254Z,5.17
2018-12-15T08:53:44.042Z,5.10
2018-12-15T08:56:12.770Z,5.04
2018-12-15T08:58:41.550Z,4.96
2018-12-15T09:01:10.299Z,4.97
2018-12-15T09:03:39.019Z,4.89
2018-12-15T09:06:07.767Z,4.87
2018-12-15T09:08:36.460Z,4.79
2018-12-15T09:11:05.193Z,4.92
2018-12-15T09:13:33.946Z,4.96
2018-12-15T09:16:02.675Z,4.84
2018-12-15T09:18:31.717Z,4.78
2018-12-15T09:21:00.434Z,4.76
2018-12-15T09:23:29.131Z,4.63
2018-12-15T09:25:57.878Z,4.61
2018-12-15T09:28:27.242Z,4.52
2018-12-15T09:30:56.032Z,4.48
2018-12-15T09:33:24.730Z,4.53
2018-12-15T09:35:53.471Z,4.45
2018-12-15T09:38:22.231Z,4.47
2018-12-15T09:40:50.972Z,4.53
2018-12-15T09:43:19.758Z,4.52
2018-12-15T09:45:48.415Z,4.57
2018-12-15T09:48:17.146Z,4.58
2018-12-15T09:50:46.455Z,4.25
2018-12-15T09:53:15.235Z,4.47
2018-12-15T09:55:43.998Z,4.53
2018-12-15T09:58:12.655Z,4.34
2018-12-15T10:00:41.359Z,4.51
2018-12-15T10:03:10.094Z,4.52
2018-12-15T10:05:38.814Z,4.45
2018-12-15T10:08:07.487Z,4.64
2018-12-15T10:10:36.211Z,4.68
2018-12-15T10:13:04.969Z,4.73
2018-12-15T10:15:33.700Z,4.73
2018-12-15T10:18:02.488Z,4.75
2018-12-15T10:20:31.244Z,4.69
2018-12-15T10:22:59.945Z,4.67
2018-12-15T10:25:28.646Z,4.71
2018-12-15T10:27:57.389Z,4.77
2018-12-15T10:30:31.582Z,4.72
2018-12-15T10:33:00.314Z,4.70
2018-12-15T10:35:29.062Z,4.69
2018-12-15T10:37:58.027Z,4.61
2018-12-15T10:40:26.806Z,4.56
2018-12-15T10:42:55.490Z,4.44
2018-12-15T10:45:24.245Z,4.49
2018-12-15T10:47:52.971Z,4.59
2018-12-15T10:50:21.656Z,4.58
2018-12-15T10:52:50.315Z,4.67
2018-12-15T10:55:19.034Z,4.65
2018-12-15T10:57:47.915Z,4.70
2018-12-15T11:00:23.029Z,4.86
2018-12-15T11:02:51.758Z,4.95
2018-12-15T11:05:20.511Z,4.85
2018-12-15T11:07:49.306Z,4.93
2018-12-15T11:10:18.206Z,4.86
2018-12-15T11:12:46.891Z,4.93
2018-12-15T11:15:15.626Z,4.92
2018-12-15T11:17:44.364Z,4.96
2018-12-15T11:20:13.166Z,4.78
2018-12-15T11:22:41.962Z,4.95
2018-12-15T11:25:10.723Z,5.01
2018-12-15T11:27:39.445Z,4.98
2018-12-15T11:30:08.198Z,5.01
2018-12-15T11:32:37.091Z,5.07
2018-12-15T11:35:06.114Z,4.75
2018-12-15T11:37:34.954Z,5.05
2018-12-15T11:40:03.831Z,5.07
2018-12-15T11:42:32.558Z,5.10
2018-12-15T11:45:01.267Z,5.07
2018-12-15T11:47:30.010Z,4.84
2018-12-15T11:49:58.747Z,5.01
2018-12-15T11:52:27.494Z,5.01
2018-12-15T11:54:56.202Z,5.01
2018-12-15T11:57:25.026Z,4.80
2018-12-15T11:59:53.791Z,4.95
2018-12-15T12:02:22.526Z,5.09
2018-12-15T12:04:51.279Z,5.06
2018-12-15T12:07:20.072Z,5.07
2018-12-15T12:09:48.799Z,4.93
2018-12-15T12:12:17.515Z,4.99
2018-12-15T12:14:46.238Z,5.08
2018-12-15T12:17:14.951Z,4.88
2018-12-15T12:19:50.028Z,4.83
2018-12-15T12:22:14.403Z,5.00
2018-12-15T12:24:43.111Z,5.08
2018-12-15T12:27:13.809Z,5.14
2018-12-15T12:29:43.577Z,5.10
2018-12-15T12:32:12.383Z,5.01
2018-12-15T12:34:41.074Z,5.06
2018-12-15T12:37:09.886Z,5.21
2018-12-15T12:39:38.628Z,5.15
2018-12-15T12:42:07.346Z,5.01
2018-12-15T12:44:36.738Z,4.82
2018-12-15T12:47:05.546Z,4.82
2018-12-15T12:49:34.318Z,4.81
2018-12-15T12:52:03.094Z,4.93
2018-12-15T12:54:31.850Z,5.07
2018-12-15T12:57:00.570Z,5.12
2018-12-15T12:59:31.323Z,5.05
2018-12-15T13:02:00.086Z,4.94
2018-12-15T13:04:28.742Z,4.89
2018-12-15T13:06:57.462Z,4.86
2018-12-15T13:09:26.196Z,4.86
2018-12-15T13:11:54.931Z,4.86
2018-12-15T13:14:23.714Z,4.96
2018-12-15T13:16:52.502Z,4.77
2018-12-15T13:19:21.203Z,4.53
2018-12-15T13:21:50.792Z,4.65
2018-12-15T13:24:19.522Z,4.68
2018-12-15T13:26:48.246Z,4.80
2018-12-15T13:29:16.956Z,4.71
2018-12-15T13:31:45.658Z,4.75
2018-12-15T13:34:14.410Z,4.65
2018-12-15T13:36:43.135Z,4.67
2018-12-15T13:39:11.946Z,4.62
2018-12-15T13:41:40.687Z,4.59
2018-12-15T13:44:10.046Z,4.58
2018-12-15T13:46:38.770Z,4.48
2018-12-15T13:49:07.500Z,4.54
2018-12-15T13:51:36.214Z,4.64
2018-12-15T13:54:04.931Z,4.17
2018-12-15T13:56:33.659Z,4.78
2018-12-15T13:59:02.390Z,4.86
2018-12-15T14:01:31.162Z,4.86
2018-12-15T14:03:59.882Z,4.73
2018-12-15T14:06:29.426Z,4.74
2018-12-15T14:08:58.154Z,4.42
2018-12-15T14:11:26.907Z,4.21
2018-12-15T14:13:55.652Z,4.14
2018-12-15T14:16:24.365Z,4.41
2018-12-15T14:18:53.102Z,4.42
2018-12-15T14:21:21.810Z,4.20
2018-12-15T14:23:50.527Z,4.29
2018-12-15T14:26:19.266Z,4.12
2018-12-15T14:28:49.006Z,4.32
2018-12-15T14:31:17.721Z,4.42
2018-12-15T14:33:46.411Z,4.23
2018-12-15T14:36:15.154Z,4.21
2018-12-15T14:38:43.905Z,4.41
2018-12-15T14:41:12.652Z,4.22
2018-12-15T14:43:41.416Z,4.04
2018-12-15T14:46:10.142Z,4.01
2018-12-15T14:48:38.839Z,4.05
2018-12-15T14:51:08.510Z,4.28
2018-12-15T14:53:37.255Z,4.37
2018-12-15T14:56:05.990Z,4.34
2018-12-15T14:58:34.743Z,4.05
2018-12-15T15:01:04.526Z,4.18
2018-12-15T15:03:33.219Z,4.17
2018-12-15T15:06:01.871Z,4.18
2018-12-15T15:08:30.691Z,4.06
2018-12-15T15:10:59.596Z,4.10
2018-12-15T15:13:34.328Z,4.16
2018-12-15T15:15:59.091Z,4.24
2018-12-15T15:18:27.805Z,4.09
2018-12-15T15:20:56.642Z,3.81
2018-12-15T15:23:25.311Z,3.71
2018-12-15T15:25:54.051Z,3.75
2018-12-15T15:28:22.797Z,3.88
2018-12-15T15:30:51.539Z,3.99
2018-12-15T15:33:20.200Z,3.70
2018-12-15T15:35:48.930Z,3.90
2018-12-15T15:38:17.657Z,3.96
2018-12-15T15:40:46.387Z,4.25
2018-12-15T15:43:15.070Z,4.43
2018-12-15T15:45:43.793Z,4.38
2018-12-15T15:48:12.482Z,3.93
2018-12-15T15:50:41.235Z,4.26
2018-12-15T15:53:10.059Z,4.07
2018-12-15T15:55:38.796Z,3.37
2018-12-15T15:58:07.541Z,3.97
2018-12-15T16:00:36.267Z,3.64
2018-12-15T16:03:05.042Z,4.04
2018-12-15T16:05:33.771Z,4.00
2018-12-15T16:08:02.424Z,4.31
2018-12-15T16:10:31.155Z,3.81
2018-12-15T16:12:59.883Z,3.77
2018-12-15T16:15:28.619Z,3.84
2018-12-15T16:17:57.442Z,3.69
2018-12-15T16:20:26.117Z,3.04
2018-12-15T16:22:54.843Z,3.20
2018-12-15T16:25:23.590Z,3.61
2018-12-15T16:27:52.302Z,3.60
2018-12-15T16:30:21.087Z,3.50
2018-12-15T16:32:49.819Z,3.54
2018-12-15T16:35:19.800Z,3.79
2018-12-15T16:37:48.732Z,3.73
2018-12-15T16:40:17.474Z,4.05
2018-12-15T16:42:46.214Z,4.05
2018-12-15T16:45:15.011Z,4.27
2018-12-15T16:47:43.763Z,4.47
2018-12-15T16:50:13.773Z,4.44
2018-12-15T16:52:42.787Z,4.35
2018-12-15T16:55:11.491Z,4.46
2018-12-15T16:57:41.262Z,4.51
2018-12-15T17:00:12.815Z,4.59
2018-12-15T17:02:41.513Z,4.59
2018-12-15T17:05:10.222Z,4.58
2018-12-15T17:07:38.962Z,4.22
2018-12-15T17:10:08.549Z,4.17
2018-12-15T17:12:37.282Z,4.03
2018-12-15T17:15:07.746Z,3.59
2018-12-15T17:17:37.538Z,3.57
2018-12-15T17:20:07.667Z,3.71
2018-12-15T17:22:37.403Z,3.40
2018-12-15T17:25:07.086Z,3.21
2018-12-15T17:27:35.822Z,3.18
2018-12-15T17:30:06.350Z,3.02
2018-12-15T17:32:36.194Z,2.78
2018-12-15T17:35:05.562Z,3.18
2018-12-15T17:37:35.384Z,3.19
2018-12-15T17:40:06.687Z,3.48
2018-12-15T17:42:35.463Z,3.54
2018-12-15T17:45:04.351Z,3.72
2018-12-15T17:47:33.098Z,3.77
2018-12-15T17:50:01.794Z,4.04
2018-12-15T17:52:30.514Z,3.95
2018-12-15T17:54:59.246Z,3.78
2018-12-15T17:57:27.979Z,3.69
2018-12-15T17:59:56.738Z,3.14
2018-12-15T18:02:26.119Z,2.69
2018-12-15T18:04:54.847Z,3.00
2018-12-15T18:07:23.582Z,3.16
2018-12-15T18:09:52.334Z,3.33
2018-12-15T18:12:21.078Z,3.52
2018-12-15T18:14:49.840Z,3.42
2018-12-15T18:17:18.543Z,2.97
2018-12-15T18:19:47.223Z,3.21
2018-12-15T18:22:15.955Z,3.10
2018-12-15T18:24:45.407Z,3.43
2018-12-15T18:27:14.090Z,3.47
2018-12-15T18:29:42.787Z,3.54
2018-12-15T18:32:11.602Z,3.66
2018-12-15T18:34:40.341Z,3.64
2018-12-15T18:37:09.089Z,3.72
2018-12-15T18:39:37.819Z,3.44
2018-12-15T18:42:10.827Z,3.45
2018-12-15T18:44:37.235Z,3.38
2018-12-15T18:47:05.934Z,2.92
2018-12-15T18:49:34.679Z,3.01
2018-12-15T18:52:03.467Z,3.05
2018-12-15T18:54:32.286Z,3.23
2018-12-15T18:57:01.091Z,3.17
2018-12-15T18:59:31.141Z,3.03
2018-12-15T19:01:59.895Z,2.55
2018-12-15T19:04:28.683Z,2.97
2018-12-15T19:06:57.351Z,2.91
2018-12-15T19:09:26.115Z,3.05
2018-12-15T19:11:55.927Z,3.03
2018-12-15T19:14:24.647Z,2.92
2018-12-15T19:16:53.419Z,2.98
2018-12-15T19:19:22.162Z,2.73
2018-12-15T19:21:50.843Z,2.57
2018-12-15T19:24:19.607Z,2.64
2018-12-15T19:26:48.326Z,2.72
2018-12-15T19:29:17.131Z,3.14
2018-12-15T19:31:45.883Z,2.88
2018-12-15T19:34:17.687Z,2.98
2018-12-15T19:36:45.918Z,3.22
2018-12-15T19:39:14.714Z,2.86
2018-12-15T19:41:43.456Z,2.80
2018-12-15T19:44:12.206Z,2.30
2018-12-15T19:46:40.934Z,2.74
2018-12-15T19:49:09.671Z,2.81
2018-12-15T19:51:38.394Z,2.94
2018-12-15T19:54:07.139Z,2.87
2018-12-15T19:56:36.874Z,2.99
2018-12-15T19:59:05.586Z,3.10
2018-12-15T20:01:34.311Z,3.21
2018-12-15T20:04:03.055Z,3.19
2018-12-15T20:06:32.547Z,3.08
2018-12-15T20:09:01.226Z,3.28
2018-12-15T20:11:29.994Z,3.29
2018-12-15T20:13:58.646Z,3.43
2018-12-15T20:16:27.439Z,3.27
2018-12-15T20:18:56.154Z,3.34
2018-12-15T20:21:24.882Z,3.34
2018-12-15T20:23:53.735Z,3.19
2018-12-15T20:26:22.487Z,3.35
2018-12-15T20:28:51.186Z,3.12
2018-12-15T20:31:19.912Z,3.19
2018-12-15T20:33:48.586Z,1.78
2018-12-15T20:36:17.342Z,3.17
2018-12-15T20:38:46.054Z,3.43
2018-12-15T20:41:14.755Z,3.36
2018-12-15T20:43:43.514Z,3.15
2018-12-15T20:46:12.259Z,3.41
2018-12-15T20:48:40.995Z,2.97
2018-12-15T20:51:09.719Z,3.11
2018-12-15T20:53:38.472Z,3.17
2018-12-15T20:56:07.208Z,3.01
2018-12-15T20:58:35.969Z,3.30
2018-12-15T21:01:04.806Z,2.97
2018-12-15T21:03:33.535Z,2.95
2018-12-15T21:06:02.300Z,2.64
2018-12-15T21:08:31.039Z,2.71
2018-12-15T21:10:59.822Z,2.66
2018-12-15T21:13:28.528Z,2.87
2018-12-15T21:15:58.413Z,3.25
2018-12-15T21:18:27.205Z,3.36
2018-12-15T21:20:55.931Z,3.18
2018-12-15T21:23:24.707Z,3.49
2018-12-15T21:25:53.442Z,2.90
2018-12-15T21:28:22.162Z,3.03
2018-12-15T21:30:50.834Z,3.00
2018-12-15T21:33:19.590Z,3.20
2018-12-15T21:35:48.322Z,3.17
2018-12-15T21:38:17.066Z,2.91
2018-12-15T21:40:45.845Z,2.81
2018-12-15T21:43:14.578Z,3.15
2018-12-15T21:45:43.320Z,3.16
2018-12-15T21:48:12.112Z,3.31
2018-12-15T21:50:40.899Z,3.28
2018-12-15T21:53:09.556Z,2.54
2018-12-15T21:55:38.307Z,2.59
2018-12-15T21:58:07.058Z,2.42
2018-12-15T22:00:35.766Z,2.64
2018-12-15T22:03:04.582Z,3.05
2018-12-15T22:05:33.275Z,2.72
2018-12-15T22:08:01.971Z,2.94
2018-12-15T22:10:31.100Z,2.67
2018-12-15T22:12:59.894Z,2.45
2018-12-15T22:15:28.654Z,2.88
2018-12-15T22:17:57.382Z,2.72
2018-12-15T22:20:26.117Z,2.87
2018-12-15T22:22:54.800Z,2.92
2018-12-15T22:25:23.530Z,2.84
2018-12-15T22:27:52.211Z,2.75
2018-12-15T22:30:20.915Z,2.50
2018-12-15T22:32:50.318Z,2.75
2018-12-15T22:35:19.029Z,2.63
2018-12-15T22:37:47.839Z,2.52
2018-12-15T22:40:17.632Z,2.30
2018-12-15T22:42:46.345Z,2.64
2018-12-15T22:45:15.052Z,2.58
2018-12-15T22:47:43.802Z,2.55
2018-12-15T22:50:12.564Z,2.69
2018-12-15T22:52:41.362Z,2.71
2018-12-15T22:55:10.585Z,2.64
2018-12-15T22:57:39.374Z,2.70
2018-12-15T23:00:10.511Z,2.70
2018-12-15T23:02:41.135Z,2.53
2018-12-15T23:05:10.041Z,2.66
2018-12-15T23:07:38.765Z,2.85
2018-12-15T23:10:08.214Z,2.68
2018-12-15T23:12:36.983Z,2.95
2018-12-15T23:15:06.764Z,3.02
2018-12-15T23:17:35.479Z,2.80
2018-12-15T23:20:05.514Z,2.93
2018-12-15T23:22:34.238Z,2.98
2018-12-15T23:25:03.010Z,2.82
2018-12-15T23:27:31.678Z,2.84
2018-12-15T23:30:00.407Z,2.86
2018-12-15T23:32:29.076Z,2.89
2018-12-15T23:34:57.819Z,2.79
2018-12-15T23:37:26.530Z,3.04
2018-12-15T23:39:55.242Z,2.96
2018-12-15T23:42:23.986Z,2.81
2018-12-15T23:44:52.803Z,2.97
2018-12-15T23:47:21.476Z,3.06
2018-12-15T23:49:50.186Z,2.76
2018-12-15T23:52:23.287Z,2.68
2018-12-15T23:54:49.643Z,2.90
2018-12-15T23:57:18.414Z,2.79
2018-12-15T23:59:47.070Z,3.11
